Reuver, Netherlands
Current Conditions -  °F | °C
As of 10:20 AM on Thursday 27 Nov 2014 (Local Time) from EDLN Reporting Station
Broken Clouds Broken Clouds  
Wind Chill: 39°   Ceiling: 7000
Heat Index: 45°   Visibility: 6mi
Dew Point: 39°   Wind: 10mph
Humidity: 81%   Direction: 140°SE
Pressure: 29.8"   Gusts: NA
Location:  51.28°N, 6.08°E
Report Text: EDLN 270920Z 14009KT 110V180 9999 FEW044 BKN070 07/04 Q1009 RMK ATIS F
Loading
Personal Weather Stations






























Interactive Weather Map New forecast layout! Learn more

10-Day Weather Forecast

Advertisements
Track Severe Weather on mobile